createdAt,value
2023-04-11T00:01:24.550Z,94408.75
2023-04-11T00:03:26.249Z,94407.91
2023-04-11T00:05:28.056Z,94395.50
2023-04-11T00:07:29.647Z,94397.06
2023-04-11T00:09:31.359Z,94400.34
2023-04-11T00:11:33.115Z,94399.47
2023-04-11T00:13:34.606Z,94391.97
2023-04-11T00:15:36.282Z,94390.06
2023-04-11T00:17:38.006Z,94395.28
2023-04-11T00:19:39.583Z,94384.78
2023-04-11T00:21:41.053Z,94379.78
2023-04-11T00:23:42.544Z,94383.72
2023-04-11T00:25:44.068Z,94385.22
2023-04-11T00:27:45.682Z,94387.78
2023-04-11T00:29:47.262Z,94379.13
2023-04-11T00:31:48.824Z,94384.56
2023-04-11T00:33:50.375Z,94382.00
2023-04-11T00:35:52.610Z,94376.69
2023-04-11T00:37:56.312Z,94378.03
2023-04-11T00:39:57.911Z,94378.19
2023-04-11T00:42:06.715Z,94375.56
2023-04-11T00:44:08.715Z,94375.84
2023-04-11T00:46:10.397Z,94378.09
2023-04-11T00:48:11.963Z,94379.63
2023-04-11T00:50:14.226Z,94376.34
2023-04-11T00:52:16.073Z,94384.38
2023-04-11T00:54:18.517Z,94381.88
2023-04-11T00:56:20.040Z,94382.84
2023-04-11T00:58:21.620Z,94373.81
2023-04-11T01:00:23.333Z,94381.34
2023-04-11T01:02:25.195Z,94374.84
2023-04-11T01:04:26.775Z,94371.63
2023-04-11T01:06:30.866Z,94385.88
2023-04-11T01:08:32.339Z,94381.91
2023-04-11T01:10:33.877Z,94382.88
2023-04-11T01:12:35.547Z,94382.91
2023-04-11T01:14:37.056Z,94377.53
2023-04-11T01:16:38.593Z,94384.63
2023-04-11T01:18:40.069Z,94385.81
2023-04-11T01:20:41.626Z,94385.00
2023-04-11T01:22:43.162Z,94390.88
2023-04-11T01:24:44.605Z,94388.22
2023-04-11T01:26:46.138Z,94380.25
2023-04-11T01:28:47.657Z,94386.28
2023-04-11T01:30:49.237Z,94382.50
2023-04-11T01:32:50.942Z,94390.22
2023-04-11T01:34:52.628Z,94385.16
2023-04-11T01:36:54.416Z,94376.16
2023-04-11T01:38:56.393Z,94381.47
2023-04-11T01:40:58.032Z,94376.25
2023-04-11T01:42:59.890Z,94378.75
2023-04-11T01:45:01.585Z,94372.66
2023-04-11T01:47:03.359Z,94377.88
2023-04-11T01:49:04.963Z,94378.22
2023-04-11T01:51:07.496Z,94376.16
2023-04-11T01:53:08.970Z,94374.41
2023-04-11T01:55:10.510Z,94372.94
2023-04-11T01:57:12.004Z,94362.84
2023-04-11T01:59:13.557Z,94361.03
2023-04-11T02:01:17.635Z,94364.31
2023-04-11T02:03:21.032Z,94367.31
2023-04-11T02:05:23.810Z,94355.38
2023-04-11T02:07:25.303Z,94361.28
2023-04-11T02:09:26.784Z,94360.28
2023-04-11T02:11:28.307Z,94359.63
2023-04-11T02:13:29.798Z,94358.94
2023-04-11T02:15:31.328Z,94363.22
2023-04-11T02:17:32.873Z,94360.97
2023-04-11T02:19:34.554Z,94365.97
2023-04-11T02:21:36.158Z,94371.31
2023-04-11T02:23:37.788Z,94362.03
2023-04-11T02:25:39.376Z,94365.44
2023-04-11T02:27:41.005Z,94371.56
2023-04-11T02:29:42.489Z,94369.28
2023-04-11T02:31:44.139Z,94361.28
2023-04-11T02:33:45.677Z,94364.50
2023-04-11T02:35:47.243Z,94357.59
2023-04-11T02:37:48.770Z,94366.16
2023-04-11T02:39:50.356Z,94368.91
2023-04-11T02:41:51.812Z,94362.50
2023-04-11T02:43:53.942Z,94365.94
2023-04-11T02:46:05.547Z,94370.75
2023-04-11T02:48:14.010Z,94366.16
2023-04-11T02:50:15.623Z,94358.56
2023-04-11T02:52:18.201Z,94359.59
2023-04-11T02:54:19.667Z,94358.78
2023-04-11T02:56:21.582Z,94351.16
2023-04-11T02:58:26.025Z,94353.00
2023-04-11T03:00:27.556Z,94344.63
2023-04-11T03:02:30.519Z,94346.09
2023-04-11T03:04:32.291Z,94348.69
2023-04-11T03:06:33.858Z,94350.84
2023-04-11T03:08:39.249Z,94348.69
2023-04-11T03:10:40.871Z,94346.41
2023-04-11T03:12:42.467Z,94349.69
2023-04-11T03:14:44.007Z,94343.41
2023-04-11T03:16:45.712Z,94346.72
2023-04-11T03:18:47.206Z,94344.16
2023-04-11T03:20:49.032Z,94351.72
2023-04-11T03:22:50.581Z,94344.94
2023-04-11T03:24:52.102Z,94348.97
2023-04-11T03:26:53.709Z,94349.72
2023-04-11T03:28:55.459Z,94346.44
2023-04-11T03:30:57.274Z,94346.16
2023-04-11T03:33:01.181Z,94345.50
2023-04-11T03:35:02.825Z,94342.75
2023-04-11T03:37:04.996Z,94345.63
2023-04-11T03:39:06.487Z,94346.47
2023-04-11T03:41:08.029Z,94350.94
2023-04-11T03:43:09.533Z,94347.75
2023-04-11T03:45:11.022Z,94344.69
2023-04-11T03:47:12.538Z,94346.88
2023-04-11T03:49:14.036Z,94344.84
2023-04-11T03:51:15.588Z,94343.06
2023-04-11T03:53:17.104Z,94346.03
2023-04-11T03:55:18.664Z,94344.91
2023-04-11T03:57:20.142Z,94344.09
2023-04-11T03:59:21.776Z,94346.69
2023-04-11T04:01:23.548Z,94342.66
2023-04-11T04:03:25.226Z,94343.13
2023-04-11T04:05:26.816Z,94345.59
2023-04-11T04:07:28.486Z,94350.00
2023-04-11T04:09:30.002Z,94351.41
2023-04-11T04:11:31.550Z,94345.44
2023-04-11T04:13:33.282Z,94350.81
2023-04-11T04:15:34.867Z,94353.72
2023-04-11T04:17:36.372Z,94354.25
2023-04-11T04:19:37.909Z,94346.34
2023-04-11T04:21:39.387Z,94356.25
2023-04-11T04:23:52.939Z,94347.91
2023-04-11T04:25:58.080Z,94347.69
2023-04-11T04:28:01.029Z,94342.25
2023-04-11T04:30:04.722Z,94341.38
2023-04-11T04:32:11.344Z,94344.56
2023-04-11T04:34:12.883Z,94343.91
2023-04-11T04:36:17.984Z,94345.09
2023-04-11T04:38:19.626Z,94343.38
2023-04-11T04:40:21.460Z,94351.66
2023-04-11T04:42:23.874Z,94341.06
2023-04-11T04:44:25.651Z,94343.28
2023-04-11T04:46:27.157Z,94339.03
2023-04-11T04:48:28.603Z,94344.31
2023-04-11T04:50:30.232Z,94343.47
2023-04-11T04:52:31.788Z,94346.44
2023-04-11T04:54:33.285Z,94345.31
2023-04-11T04:56:34.925Z,94342.09
2023-04-11T04:58:36.583Z,94347.53
2023-04-11T05:00:38.061Z,94344.06
2023-04-11T05:02:40.714Z,94337.03
2023-04-11T05:04:42.598Z,94341.22
2023-04-11T05:06:44.210Z,94337.34
2023-04-11T05:08:46.504Z,94338.28
2023-04-11T05:10:48.049Z,94344.78
2023-04-11T05:12:49.580Z,94339.63
2023-04-11T05:14:51.180Z,94332.06
2023-04-11T05:16:52.797Z,94343.38
2023-04-11T05:18:54.351Z,94337.19
2023-04-11T05:20:56.012Z,94334.88
2023-04-11T05:22:57.532Z,94342.41
2023-04-11T05:24:59.034Z,94341.91
2023-04-11T05:27:00.674Z,94338.53
2023-04-11T05:29:02.192Z,94332.19
2023-04-11T05:31:03.896Z,94333.47
2023-04-11T05:33:05.608Z,94337.03
2023-04-11T05:35:07.413Z,94341.13
2023-04-11T05:37:09.245Z,94333.63
2023-04-11T05:39:11.039Z,94333.03
2023-04-11T05:41:12.815Z,94332.94
2023-04-11T05:43:15.291Z,94330.19
2023-04-11T05:45:16.813Z,94336.00
2023-04-11T05:47:18.319Z,94318.78
2023-04-11T05:49:19.902Z,94323.41
2023-04-11T05:51:21.421Z,94324.88
2023-04-11T05:53:22.919Z,94322.59
2023-04-11T05:55:24.413Z,94313.28
2023-04-11T05:57:25.867Z,94322.13
2023-04-11T05:59:28.953Z,94314.13
2023-04-11T06:01:30.529Z,94327.09
2023-04-11T06:03:32.248Z,94330.25
2023-04-11T06:05:34.866Z,94324.31
2023-04-11T06:07:36.293Z,94320.19
2023-04-11T06:09:39.297Z,94306.81
2023-04-11T06:11:40.772Z,94316.69
2023-04-11T06:13:42.307Z,94317.59
2023-04-11T06:15:43.821Z,94310.75
2023-04-11T06:17:45.553Z,94303.00
2023-04-11T06:19:47.057Z,94298.00
2023-04-11T06:21:48.538Z,94305.44
2023-04-11T06:23:50.199Z,94301.56
2023-04-11T06:25:51.798Z,94302.75
2023-04-11T06:27:53.292Z,94303.09
2023-04-11T06:29:54.785Z,94296.72
2023-04-11T06:31:56.267Z,94305.50
2023-04-11T06:33:58.083Z,94300.94
2023-04-11T06:35:59.829Z,94311.16
2023-04-11T06:38:01.318Z,94304.53
2023-04-11T06:40:05.366Z,94296.44
2023-04-11T06:42:06.990Z,94292.09
2023-04-11T06:44:08.527Z,94288.84
2023-04-11T06:46:10.430Z,94278.22
2023-04-11T06:48:12.850Z,94291.91
2023-04-11T06:50:14.526Z,94291.25
2023-04-11T06:52:16.096Z,94289.97
2023-04-11T06:54:19.354Z,94279.88
2023-04-11T06:56:21.202Z,94285.59
2023-04-11T06:58:22.769Z,94293.53
2023-04-11T07:00:24.569Z,94297.34
2023-04-11T07:02:26.492Z,94300.44
2023-04-11T07:04:28.322Z,94300.56
2023-04-11T07:06:30.531Z,94297.56
2023-04-11T07:08:32.008Z,94293.72
2023-04-11T07:10:33.642Z,94293.91
2023-04-11T07:12:35.118Z,94302.91
2023-04-11T07:14:36.565Z,94289.78
2023-04-11T07:16:38.340Z,94294.88
2023-04-11T07:18:39.917Z,94286.06
2023-04-11T07:20:41.524Z,94282.97
2023-04-11T07:22:43.394Z,94294.03
2023-04-11T07:24:46.522Z,94295.66
2023-04-11T07:26:51.146Z,94294.38
2023-04-11T07:28:52.691Z,94291.50
2023-04-11T07:30:54.162Z,94287.94
2023-04-11T07:32:56.123Z,94278.31
2023-04-11T07:34:57.675Z,94273.56
2023-04-11T07:37:01.099Z,94275.25
2023-04-11T07:39:04.502Z,94257.94
2023-04-11T07:41:06.322Z,94258.09
2023-04-11T07:43:07.837Z,94268.41
2023-04-11T07:45:09.556Z,94266.13
2023-04-11T07:47:11.197Z,94277.06
2023-04-11T07:49:12.665Z,94260.38
2023-04-11T07:51:14.137Z,94262.69
2023-04-11T07:53:15.692Z,94259.22
2023-04-11T07:55:17.352Z,94270.38
2023-04-11T07:57:18.854Z,94255.50
2023-04-11T07:59:20.378Z,94257.44
2023-04-11T08:01:22.695Z,94257.13
2023-04-11T08:03:24.636Z,94254.66
2023-04-11T08:05:27.697Z,94254.50
2023-04-11T08:07:29.184Z,94247.47
2023-04-11T08:09:30.641Z,94244.66
2023-04-11T08:11:32.299Z,94248.94
2023-04-11T08:13:33.799Z,94254.50
2023-04-11T08:15:36.971Z,94248.94
2023-04-11T08:17:39.160Z,94233.09
2023-04-11T08:19:40.960Z,94238.97
2023-04-11T08:21:42.413Z,94234.88
2023-04-11T08:23:43.930Z,94225.53
2023-04-11T08:25:45.589Z,94218.97
2023-04-11T08:27:47.030Z,94223.56
2023-04-11T08:29:48.507Z,94221.97
2023-04-11T08:31:50.097Z,94217.75
2023-04-11T08:33:51.631Z,94219.69
2023-04-11T08:35:53.569Z,94219.88
2023-04-11T08:37:55.080Z,94213.31
2023-04-11T08:39:57.061Z,94210.53
2023-04-11T08:41:59.783Z,94209.06
2023-04-11T08:44:01.536Z,94205.47
2023-04-11T08:46:06.070Z,94204.94
2023-04-11T08:48:08.257Z,94203.34
2023-04-11T08:50:10.212Z,94208.38
2023-04-11T08:52:11.670Z,94209.69
2023-04-11T08:54:13.282Z,94198.94
2023-04-11T08:56:16.325Z,94194.03
2023-04-11T08:58:17.925Z,94203.34
2023-04-11T09:00:23.481Z,94194.34
2023-04-11T09:02:25.159Z,94198.28
2023-04-11T09:04:28.681Z,94186.31
2023-04-11T09:06:31.016Z,94176.25
2023-04-11T09:08:37.994Z,94198.31
2023-04-11T09:10:39.929Z,94174.16
2023-04-11T09:12:41.423Z,94181.47
2023-04-11T09:14:43.183Z,94172.25
2023-04-11T09:17:00.832Z,94167.75
2023-04-11T09:19:02.392Z,94163.22
2023-04-11T09:21:04.762Z,94173.53
2023-04-11T09:23:06.335Z,94161.34
2023-04-11T09:25:07.995Z,94164.47
2023-04-11T09:27:13.655Z,94160.50
2023-04-11T09:29:36.123Z,94149.59
2023-04-11T09:31:41.138Z,94149.88
2023-04-11T09:33:55.433Z,94143.22
2023-04-11T09:35:57.344Z,94156.22
2023-04-11T09:37:59.183Z,94156.94
2023-04-11T09:40:00.960Z,94145.72
2023-04-11T09:42:03.329Z,94144.97
2023-04-11T09:44:05.352Z,94132.28
2023-04-11T09:46:10.324Z,94136.13
2023-04-11T09:48:11.918Z,94122.38
2023-04-11T09:50:13.541Z,94121.16
2023-04-11T09:52:15.070Z,94119.56
2023-04-11T09:54:16.632Z,94115.50
2023-04-11T09:56:18.157Z,94119.44
2023-04-11T09:58:19.627Z,94115.66
2023-04-11T10:00:22.152Z,94098.63
2023-04-11T10:02:23.698Z,94106.88
2023-04-11T10:04:28.041Z,94103.97
2023-04-11T10:06:34.399Z,94104.88
2023-04-11T10:08:37.126Z,94090.84
2023-04-11T10:10:38.627Z,94102.25
2023-04-11T10:12:40.076Z,94100.13
2023-04-11T10:14:41.826Z,94112.72
2023-04-11T10:17:03.392Z,94099.00
2023-04-11T10:19:04.841Z,94093.94
2023-04-11T10:21:12.285Z,94091.66
2023-04-11T10:23:14.101Z,94072.78
2023-04-11T10:25:19.219Z,94079.41
2023-04-11T10:27:40.665Z,94073.75
2023-04-11T10:29:51.150Z,94075.81
2023-04-11T10:32:08.595Z,94070.88
2023-04-11T10:34:14.540Z,94053.97
2023-04-11T10:36:16.207Z,94055.50
2023-04-11T10:38:36.373Z,94063.28
2023-04-11T10:40:37.858Z,94053.84
2023-04-11T10:42:39.943Z,94052.69
2023-04-11T10:44:41.473Z,94051.88
2023-04-11T10:46:54.038Z,94043.31
2023-04-11T10:48:56.765Z,94037.13
2023-04-11T10:50:58.292Z,94038.47
2023-04-11T10:53:03.499Z,94038.59
2023-04-11T10:55:14.737Z,94030.16
2023-04-11T10:57:16.373Z,94030.91
2023-04-11T10:59:34.386Z,94036.41
2023-04-11T11:03:54.847Z,94018.53
2023-04-11T11:06:02.378Z,94029.34
2023-04-11T11:08:03.843Z,94013.97
2023-04-11T11:10:05.603Z,94003.94
2023-04-11T11:12:11.129Z,94014.59
2023-04-11T11:14:12.639Z,93996.88
2023-04-11T11:16:18.625Z,94007.44
2023-04-11T11:18:20.120Z,94002.91
2023-04-11T11:20:21.805Z,94019.41
2023-04-11T11:22:26.138Z,94010.91
2023-04-11T11:24:27.751Z,94004.91
2023-04-11T11:26:41.893Z,94002.66
2023-04-11T11:28:47.234Z,94017.03
2023-04-11T11:30:55.833Z,94016.66
2023-04-11T11:32:57.536Z,93996.09
2023-04-11T11:34:59.020Z,93993.97
2023-04-11T11:37:01.872Z,93988.78
2023-04-11T11:39:05.415Z,93978.25
2023-04-11T11:41:06.956Z,93988.19
2023-04-11T11:43:08.714Z,93965.91
2023-04-11T11:45:16.788Z,93963.16
2023-04-11T11:47:18.383Z,93953.31
2023-04-11T11:49:19.854Z,93965.41
2023-04-11T11:51:21.333Z,93948.88
2023-04-11T11:53:22.838Z,93952.84
2023-04-11T11:55:24.608Z,93964.69
2023-04-11T11:57:26.162Z,93954.84
2023-04-11T11:59:28.108Z,93945.91
2023-04-11T12:01:29.598Z,93948.94
2023-04-11T12:03:31.201Z,93951.34
2023-04-11T12:05:33.602Z,93955.06
2023-04-11T12:07:36.841Z,93955.06
2023-04-11T12:09:38.356Z,93939.88
2023-04-11T12:11:40.521Z,93945.81
2023-04-11T12:13:42.075Z,93941.38
2023-04-11T12:15:43.918Z,93934.34
2023-04-11T12:17:49.827Z,93942.53
2023-04-11T12:19:55.212Z,93940.34
2023-04-11T12:21:56.628Z,93934.72
2023-04-11T12:23:58.528Z,93950.03
2023-04-11T12:26:00.767Z,93937.22
2023-04-11T12:28:02.362Z,93935.97
2023-04-11T12:30:06.934Z,93932.78
2023-04-11T12:32:08.474Z,93929.97
2023-04-11T12:34:09.987Z,93924.09
2023-04-11T12:36:11.970Z,93930.38
2023-04-11T12:38:16.621Z,93930.69
2023-04-11T12:40:19.589Z,93916.88
2023-04-11T12:42:23.938Z,93921.69
2023-04-11T12:44:28.354Z,93910.94
2023-04-11T12:46:30.201Z,93904.03
2023-04-11T12:48:31.758Z,93902.81
2023-04-11T12:50:33.260Z,93905.22
2023-04-11T12:52:34.974Z,93907.53
2023-04-11T12:54:36.664Z,93900.84
2023-04-11T12:56:38.494Z,93895.38
2023-04-11T12:58:40.062Z,93888.44
2023-04-11T13:00:41.639Z,93891.50
2023-04-11T13:02:45.270Z,93886.19
2023-04-11T13:04:53.099Z,93886.13
2023-04-11T13:06:54.950Z,93874.41
2023-04-11T13:08:59.462Z,93904.53
2023-04-11T13:11:01.012Z,93884.72
2023-04-11T13:13:11.848Z,93903.75
2023-04-11T13:15:19.357Z,93877.88
2023-04-11T13:17:20.974Z,93869.72
2023-04-11T13:19:22.813Z,93870.81
2023-04-11T13:21:24.881Z,93865.69
2023-04-11T13:23:26.329Z,93869.72
2023-04-11T13:25:27.899Z,93873.50
2023-04-11T13:27:29.471Z,93863.09
2023-04-11T13:29:31.063Z,93864.59
2023-04-11T13:31:32.684Z,93858.13
2023-04-11T13:33:34.230Z,93870.53
2023-04-11T13:35:35.706Z,93877.34
2023-04-11T13:37:37.151Z,93865.75
2023-04-11T13:39:38.642Z,93866.03
2023-04-11T13:41:40.117Z,93886.69
2023-04-11T13:43:41.729Z,93868.34
2023-04-11T13:45:43.398Z,93868.00
2023-04-11T13:47:45.123Z,93885.66
2023-04-11T13:49:46.973Z,93860.97
2023-04-11T13:51:48.766Z,93860.78
2023-04-11T13:53:50.306Z,93851.34
2023-04-11T13:55:51.804Z,93860.31
2023-04-11T13:57:53.260Z,93856.09
2023-04-11T13:59:54.782Z,93865.31
2023-04-11T14:01:56.371Z,93846.63
2023-04-11T14:03:58.213Z,93844.13
2023-04-11T14:06:00.413Z,93851.19
2023-04-11T14:08:01.925Z,93860.81
2023-04-11T14:10:03.484Z,93867.56
2023-04-11T14:12:05.053Z,93854.19
2023-04-11T14:14:06.575Z,93862.78
2023-04-11T14:16:09.516Z,93858.91
2023-04-11T14:18:11.257Z,93856.22
2023-04-11T14:20:12.786Z,93845.00
2023-04-11T14:22:14.535Z,93868.63
2023-04-11T14:24:16.117Z,93847.38
2023-04-11T14:26:17.763Z,93847.41
2023-04-11T14:28:19.615Z,93851.44
2023-04-11T14:30:21.536Z,93839.31
2023-04-11T14:32:23.127Z,93848.47
2023-04-11T14:34:24.587Z,93851.38
2023-04-11T14:36:28.141Z,93840.97
2023-04-11T14:38:29.791Z,93837.97
2023-04-11T14:40:31.310Z,93827.47
2023-04-11T14:42:32.883Z,93832.09
2023-04-11T14:44:35.579Z,93839.66
2023-04-11T14:46:37.277Z,93840.16
2023-04-11T14:48:38.888Z,93842.06
2023-04-11T14:50:40.405Z,93836.88
2023-04-11T14:52:42.012Z,93827.47
2023-04-11T14:54:43.598Z,93843.06
2023-04-11T14:56:45.073Z,93832.97
2023-04-11T14:58:46.672Z,93844.22
2023-04-11T15:00:48.210Z,93836.59
2023-04-11T15:02:51.959Z,93827.13
2023-04-11T15:04:53.836Z,93841.09
2023-04-11T15:06:55.395Z,93824.47
2023-04-11T15:08:57.017Z,93828.78
2023-04-11T15:10:58.582Z,93838.34
2023-04-11T15:13:00.139Z,93835.00
2023-04-11T15:15:01.696Z,93839.47
2023-04-11T15:17:03.269Z,93832.25
2023-04-11T15:19:04.741Z,93849.66
2023-04-11T15:21:06.531Z,93879.03
2023-04-11T15:23:08.074Z,93843.09
2023-04-11T15:25:11.580Z,93840.16
2023-04-11T15:27:13.168Z,93847.75
2023-04-11T15:29:15.900Z,93842.75
2023-04-11T15:31:25.427Z,93833.22
2023-04-11T15:33:27.810Z,93830.81
2023-04-11T15:35:29.277Z,93846.94
2023-04-11T15:37:30.925Z,93845.84
2023-04-11T15:39:32.391Z,93842.88
2023-04-11T15:41:34.399Z,93841.31
2023-04-11T15:43:35.986Z,93835.34
2023-04-11T15:45:38.158Z,93845.53
2023-04-11T15:47:39.681Z,93842.75
2023-04-11T15:49:41.412Z,93849.38
2023-04-11T15:51:44.602Z,93837.91
2023-04-11T15:53:46.158Z,93836.19
2023-04-11T15:55:47.766Z,93836.38
2023-04-11T15:57:49.712Z,93828.13
2023-04-11T15:59:51.265Z,93844.03
2023-04-11T16:01:52.846Z,93838.13
2023-04-11T16:03:54.629Z,93831.03
2023-04-11T16:05:56.266Z,93836.03
2023-04-11T16:07:57.810Z,93826.94
2023-04-11T16:09:59.335Z,93828.63
2023-04-11T16:12:01.480Z,93835.94
2023-04-11T16:14:03.544Z,93838.72
2023-04-11T16:16:05.442Z,93833.25
2023-04-11T16:18:07.254Z,93844.09
2023-04-11T16:20:12.136Z,93838.91
2023-04-11T16:22:13.826Z,93830.66
2023-04-11T16:24:15.342Z,93841.72
2023-04-11T16:26:16.902Z,93838.78
2023-04-11T16:28:18.407Z,93831.25
2023-04-11T16:30:19.961Z,93843.13
2023-04-11T16:32:21.761Z,93838.22
2023-04-11T16:34:24.007Z,93832.78
2023-04-11T16:36:27.361Z,93840.97
2023-04-11T16:38:28.798Z,93835.25
2023-04-11T16:40:31.875Z,93831.88
2023-04-11T16:42:33.403Z,93842.22
2023-04-11T16:44:34.837Z,93830.00
2023-04-11T16:46:36.440Z,93837.88
2023-04-11T16:48:38.028Z,93834.84
2023-04-11T16:50:39.970Z,93831.78
2023-04-11T16:52:41.563Z,93824.91
2023-04-11T16:54:43.150Z,93831.72
2023-04-11T16:56:44.634Z,93819.22
2023-04-11T16:58:46.250Z,93833.59
2023-04-11T17:00:49.274Z,93820.72
2023-04-11T17:02:50.979Z,93825.28
2023-04-11T17:04:52.949Z,93840.66
2023-04-11T17:06:56.108Z,93818.03
2023-04-11T17:08:57.798Z,93827.59
2023-04-11T17:11:09.320Z,93833.19
2023-04-11T17:13:11.956Z,93830.13
2023-04-11T17:15:13.433Z,93833.50
2023-04-11T17:17:14.990Z,93846.34
2023-04-11T17:19:16.579Z,93834.69
2023-04-11T17:21:18.141Z,93829.06
2023-04-11T17:23:26.248Z,93837.84
2023-04-11T17:25:33.571Z,93827.97
2023-04-11T17:27:35.034Z,93836.13
2023-04-11T17:29:36.790Z,93831.84
2023-04-11T17:31:38.609Z,93847.16
2023-04-11T17:33:40.306Z,93842.09
2023-04-11T17:35:42.010Z,93844.72
2023-04-11T17:37:43.516Z,93843.47
2023-04-11T17:39:46.038Z,93839.38
2023-04-11T17:41:48.073Z,93845.25
2023-04-11T17:43:49.625Z,93842.81
2023-04-11T17:45:51.192Z,93851.84
2023-04-11T17:47:52.714Z,93862.69
2023-04-11T17:49:54.998Z,93856.19
2023-04-11T17:51:59.198Z,93852.31
2023-04-11T17:54:01.255Z,93861.75
2023-04-11T17:56:04.534Z,93864.44
2023-04-11T17:58:06.144Z,93875.09
2023-04-11T18:00:19.397Z,93871.69
2023-04-11T18:02:21.012Z,93873.22
2023-04-11T18:04:23.263Z,93877.38
2023-04-11T18:06:28.015Z,93875.56
2023-04-11T18:08:46.762Z,93876.22
2023-04-11T18:10:51.679Z,93871.50
2023-04-11T18:12:53.633Z,93878.91
2023-04-11T18:14:56.872Z,93875.94
2023-04-11T18:16:58.339Z,93873.59
2023-04-11T18:18:59.872Z,93886.22
2023-04-11T18:21:06.680Z,93880.19
2023-04-11T18:23:08.900Z,93878.19
2023-04-11T18:25:10.539Z,93879.84
2023-04-11T18:27:12.313Z,93881.72
2023-04-11T18:29:14.024Z,93877.94
2023-04-11T18:31:15.667Z,93886.22
2023-04-11T18:33:19.013Z,93890.94
2023-04-11T18:35:23.585Z,93885.25
2023-04-11T18:37:27.950Z,93889.94
2023-04-11T18:39:29.545Z,93887.97
2023-04-11T18:41:31.292Z,93888.06
2023-04-11T18:43:32.946Z,93896.00
2023-04-11T18:45:34.637Z,93887.25
2023-04-11T18:47:36.465Z,93880.28
2023-04-11T18:49:38.130Z,93885.34
2023-04-11T18:51:39.738Z,93893.59
2023-04-11T18:53:41.758Z,93900.91
2023-04-11T18:55:43.254Z,93889.41
2023-04-11T18:57:47.382Z,93887.16
2023-04-11T18:59:51.101Z,93880.47
2023-04-11T19:01:53.424Z,93888.84
2023-04-11T19:03:57.016Z,93892.13
2023-04-11T19:05:59.359Z,93890.13
2023-04-11T19:08:01.060Z,93884.63
2023-04-11T19:10:02.545Z,93884.25
2023-04-11T19:12:04.325Z,93890.75
2023-04-11T19:14:06.266Z,93882.34
2023-04-11T19:16:07.813Z,93885.81
2023-04-11T19:18:17.007Z,93886.63
2023-04-11T19:20:20.213Z,93885.34
2023-04-11T19:22:21.750Z,93897.28
2023-04-11T19:24:23.278Z,93883.53
2023-04-11T19:26:28.427Z,93881.53
2023-04-11T19:28:29.995Z,93879.00
2023-04-11T19:30:31.874Z,93885.44
2023-04-11T19:32:36.119Z,93884.81
2023-04-11T19:34:37.747Z,93877.31
2023-04-11T19:36:39.264Z,93883.28
2023-04-11T19:38:41.018Z,93886.16
2023-04-11T19:40:42.676Z,93881.19
2023-04-11T19:42:44.580Z,93874.31
2023-04-11T19:44:46.101Z,93884.38
2023-04-11T19:46:47.606Z,93881.53
2023-04-11T19:48:49.167Z,93889.59
2023-04-11T19:50:51.501Z,93877.94
2023-04-11T19:52:54.414Z,93876.94
2023-04-11T19:54:56.615Z,93880.09
2023-04-11T19:56:58.323Z,93875.38
2023-04-11T19:58:59.883Z,93876.84
2023-04-11T20:01:01.891Z,93882.06
2023-04-11T20:03:05.916Z,93871.66
2023-04-11T20:05:08.700Z,93877.44
2023-04-11T20:07:10.402Z,93873.69
2023-04-11T20:09:11.998Z,93867.44
2023-04-11T20:11:16.503Z,93870.22
2023-04-11T20:13:18.060Z,93860.75
2023-04-11T20:15:19.524Z,93862.34
2023-04-11T20:17:21.073Z,93867.94
2023-04-11T20:19:27.616Z,93880.28
2023-04-11T20:21:29.087Z,93863.56
2023-04-11T20:23:33.558Z,93865.75
2023-04-11T20:25:35.034Z,93872.06
2023-04-11T20:27:36.863Z,93865.03
2023-04-11T20:29:38.457Z,93866.53
2023-04-11T20:31:39.976Z,93862.06
2023-04-11T20:33:41.537Z,93858.78
2023-04-11T20:35:43.274Z,93861.41
2023-04-11T20:37:44.952Z,93858.41
2023-04-11T20:39:46.431Z,93867.66
2023-04-11T20:41:49.875Z,93859.09
2023-04-11T20:43:52.146Z,93864.41
2023-04-11T20:45:53.849Z,93850.47
2023-04-11T20:47:56.380Z,93852.34
2023-04-11T20:50:04.136Z,93871.09
2023-04-11T20:52:05.734Z,93867.50
2023-04-11T20:54:07.329Z,93863.09
2023-04-11T20:56:08.847Z,93862.44
2023-04-11T20:58:11.954Z,93855.75
2023-04-11T21:00:17.760Z,93852.63
2023-04-11T21:02:19.436Z,93858.19
2023-04-11T21:04:22.159Z,93854.81
2023-04-11T21:06:23.820Z,93863.78
2023-04-11T21:08:25.308Z,93845.47
2023-04-11T21:10:26.867Z,93845.63
2023-04-11T21:12:28.449Z,93852.94
2023-04-11T21:14:32.932Z,93855.94
2023-04-11T21:16:34.438Z,93853.84
2023-04-11T21:18:35.936Z,93862.13
2023-04-11T21:20:39.009Z,93856.00
2023-04-11T21:22:40.480Z,93855.00
2023-04-11T21:24:41.993Z,93843.19
2023-04-11T21:26:43.663Z,93846.81
2023-04-11T21:28:45.104Z,93848.50
2023-04-11T21:30:46.675Z,93841.00
2023-04-11T21:32:48.203Z,93844.59
2023-04-11T21:34:49.721Z,93843.97
2023-04-11T21:36:51.298Z,93842.00
2023-04-11T21:38:52.866Z,93853.25
2023-04-11T21:40:54.361Z,93846.53
2023-04-11T21:42:56.126Z,93840.56
2023-04-11T21:44:57.707Z,93841.84
2023-04-11T21:46:59.770Z,93846.56
2023-04-11T21:49:01.304Z,93844.41
2023-04-11T21:51:03.598Z,93844.94
2023-04-11T21:53:05.418Z,93847.91
2023-04-11T21:55:08.841Z,93839.06
2023-04-11T21:57:11.267Z,93834.72
2023-04-11T21:59:12.783Z,93827.22
2023-04-11T22:01:15.413Z,93832.72
2023-04-11T22:03:20.032Z,93831.91
2023-04-11T22:05:22.019Z,93829.28
2023-04-11T22:07:26.543Z,93831.75
2023-04-11T22:09:28.096Z,93831.69
2023-04-11T22:11:29.767Z,93839.22
2023-04-11T22:13:31.377Z,93831.22
2023-04-11T22:15:33.349Z,93832.38
2023-04-11T22:17:34.923Z,93829.94
2023-04-11T22:19:36.432Z,93831.91
2023-04-11T22:21:38.440Z,93833.81
2023-04-11T22:23:42.853Z,93827.78
2023-04-11T22:25:44.337Z,93828.25
2023-04-11T22:27:45.815Z,93830.75
2023-04-11T22:29:47.408Z,93838.69
2023-04-11T22:31:50.399Z,93823.16
2023-04-11T22:33:52.088Z,93821.91
2023-04-11T22:35:53.622Z,93834.09
2023-04-11T22:37:59.206Z,93826.97
2023-04-11T22:40:00.846Z,93819.94
2023-04-11T22:42:02.384Z,93821.88
2023-04-11T22:44:04.075Z,93816.84
2023-04-11T22:46:05.776Z,93818.88
2023-04-11T22:48:07.394Z,93810.06
2023-04-11T22:50:10.149Z,93811.25
2023-04-11T22:52:15.080Z,93821.69
2023-04-11T22:54:16.708Z,93810.59
2023-04-11T22:58:37.926Z,93804.09
2023-04-11T23:00:39.615Z,93815.63
2023-04-11T23:02:41.218Z,93809.91
2023-04-11T23:04:42.909Z,93810.53
2023-04-11T23:06:44.622Z,93808.41
2023-04-11T23:08:46.663Z,93810.66
2023-04-11T23:10:48.159Z,93809.16
2023-04-11T23:12:49.755Z,93806.72
2023-04-11T23:14:53.242Z,93801.13
2023-04-11T23:16:54.804Z,93804.72
2023-04-11T23:18:56.334Z,93794.16
2023-04-11T23:20:58.265Z,93793.53
2023-04-11T23:22:59.781Z,93792.34
2023-04-11T23:25:01.360Z,93792.19
2023-04-11T23:27:02.867Z,93790.38
2023-04-11T23:29:04.488Z,93791.66
2023-04-11T23:31:06.259Z,93792.19
2023-04-11T23:33:09.001Z,93779.00
2023-04-11T23:35:10.956Z,93786.00
2023-04-11T23:37:12.966Z,93795.34
2023-04-11T23:39:14.722Z,93786.00
2023-04-11T23:41:16.225Z,93784.41
2023-04-11T23:43:17.756Z,93780.88
2023-04-11T23:45:22.586Z,93768.91
2023-04-11T23:47:24.138Z,93781.34
2023-04-11T23:49:25.851Z,93780.19
2023-04-11T23:51:27.354Z,93773.34
2023-04-11T23:53:28.825Z,93766.94
2023-04-11T23:55:32.253Z,93765.94
2023-04-11T23:57:33.781Z,93756.84
2023-04-11T23:59:36.208Z,93754.88
